Flight Track Log - Related Links

Times and Time Zones

All times are in EDT time to prevent confusion due to time zone crossing. See the EJA907 flight status page for this flight to view local times or setup timezone preferences in your user account.

Time Position Orientation Groundspeed Altitude Reporting Facility
EDT Latitude Longitude Course Direction KTS MPH feet Rate Location/Type
Sun 03:37:20 PM 41.1500 -73.2167 237° Southwest 215 247 2,700  Level New York TRACON
Sun 03:38:20 PM 41.2000 -73.2833 315° West 263 303 5,900 1,650 Climbing New York TRACON
Sun 03:39:20 PM 41.2500 -73.3500 315° West 271 312 6,000 50 Climbing New York TRACON
Sun 03:40:20 PM 41.2667 -73.4500 283° West 262 302 6,000 400 Level New York TRACON
Sun 03:41:20 PM 41.2667 -73.5500 270° West 268 308 6,800 500 Climbing New York TRACON
Sun 03:42:00 PM 40.8220 -73.9394 237° Southwest  Level FlightAware Approximate
Sun 03:42:20 PM 41.2333 -73.6333 242° Southwest 271 312 7,000  Level New York TRACON
Sun 03:43:20 PM 41.2000 -73.7167 242° Southwest 260 299 7,100 800 Climbing New York TRACON
Sun 03:44:20 PM 41.1500 -73.8000 231° Southwest 262 302 8,600 2,000 Climbing New York TRACON
Sun 03:45:20 PM 41.1167 -73.8833 242° Southwest 287 330 11,100 1,900 Climbing New York TRACON
Sun 03:46:20 PM 41.0500 -73.9833 229° Southwest 361 415 12,400 2,000 Climbing New York TRACON
Sun 03:47:20 PM 40.9833 -74.0833 229° Southwest 358 412 15,100 1,300 Climbing New York TRACON
Sun 03:48:20 PM 40.9167 -74.2000 233° Southwest 413 475 15,000 542 Descending New York TRACON
Sun 03:50:17 PM 40.7783 -74.4158 230° Southwest 443 510 16,700 686 Climbing New York Center
Sun 03:51:15 PM 40.7014 -74.5403 231° Southwest 443 510 17,000 1,008 Climbing New York Center
Sun 03:52:16 PM 40.6181 -74.6669 229° Southwest 436 502 18,700 1,785 Climbing New York Center
Sun 03:53:16 PM 40.5522 -74.7697 230° Southwest 430 495 20,600 1,983 Climbing New York Center
Sun 03:54:17 PM 40.4817 -74.8803 230° Southwest 418 481 22,700 1,636 Climbing New York Center
Sun 03:55:17 PM 40.4069 -74.9931 229° Southwest 412 474 23,900 700 Climbing New York Center
Sun 03:56:17 PM 40.3256 -75.1078 227° Southwest 422 486 24,100 864 Climbing New York Center
Sun 03:57:15 PM 40.2442 -75.2222 227° Southwest 435 501 25,600 1,550 Climbing New York Center
Sun 03:58:17 PM 40.1606 -75.3392 227° Southwest 435 501 27,200 1,180 Climbing New York Center
Sun 03:59:17 PM 40.0767 -75.4586 227° Southwest 441 507 28,000 407 Climbing New York Center
Sun 04:00:15 PM 39.9883 -75.5800 226° Southwest 451 519 28,000  Level New York Center
Sun 04:01:16 PM 39.8997 -75.7064 228° Southwest 470 541 28,000 -645 Level New York Center
Sun 04:02:16 PM 39.8147 -75.8411 231° Southwest 482 555 26,700 -1,636 Descending New York Center
Sun 04:03:17 PM 39.7297 -75.9725 230° Southwest 488 562 24,700 -1,339 Descending New York Center
Sun 04:04:17 PM 39.6489 -76.1042 231° Southwest 482 555 24,000 -356 Descending New York Center
Sun 04:05:15 PM 39.5550 -76.2397 228° Southwest 474 545 24,000 -958 Level New York Center
Sun 04:06:16 PM 39.4678 -76.3647 228° Southwest 474 545 22,100 -909 Descending New York Center
Sun 04:07:27 PM 39.3789 -76.5153 233° Southwest 472 543 22,000 -46 Descending Washington Center
Sun 04:08:27 PM 39.3028 -76.6375 231° Southwest 465 535 22,000  Level Washington Center
Sun 04:09:24 PM 39.2333 -76.7500 231° Southwest 436 502 22,000  Level Potomac TRACON
Sun 04:10:24 PM 39.1500 -76.8833 231° Southwest 435 501 22,000  Level Potomac TRACON
Sun 04:11:25 PM 39.0667 -77.0000 227° Southwest 436 502 22,000  Level Potomac TRACON
Sun 04:12:25 PM 38.9833 -77.1000 223° Southwest 448 516 22,000  Level Potomac TRACON
Sun 04:13:25 PM 38.9000 -77.2000 223° Southwest 474 545 22,000 -656 Level Potomac TRACON
Sun 04:15:28 PM 38.7225 -77.4144 223° Southwest 455 524 20,000 -652 Descending Washington Center
Sun 04:16:29 PM 38.6517 -77.5375 234° Southwest 443 510 20,000 -610 Level Washington Center
Sun 04:17:26 PM 38.5828 -77.6633 235° Southwest 443 510 18,800 -1,590 Descending Washington Center
Sun 04:18:26 PM 38.5139 -77.7914 236° Southwest 443 510 16,900 -1,918 Descending Washington Center
Sun 04:19:28 PM 38.4492 -77.9086 235° Southwest 435 501 14,900 -1,967 Descending Washington Center
Sun 04:20:28 PM 38.3842 -78.0233 234° Southwest 413 475 12,900 -1,835 Descending Washington Center
Sun 04:21:29 PM 38.3258 -78.1300 235° Southwest 395 455 11,200 -1,169 Descending Washington Center
Sun 04:22:26 PM 38.2572 -78.2147 224° Southwest 366 421 10,600 -1,627 Descending Washington Center
Sun 04:23:27 PM 38.1833 -78.2544 203° Southwest 297 342 8,000 -3,000 Descending Washington Center
Sun 04:24:28 PM 38.1117 -78.2864 199° South 283 326 4,500 -2,218 Descending Washington Center
Sun 04:25:26 PM 38.0564 -78.3369 216° Southwest 263 303 3,600 -756 Descending Washington Center
Sun 04:26:27 PM 38.0425 -78.3919 252° West 239 275 3,000 -836 Descending Washington Center
Sun 04:27:28 PM 38.0744 -78.4589 301° West 168 193 1,900 -893 Descending Washington Center
Sun 04:28:28 PM 38.1117 -78.4683 349° North 125 144 1,200 -595 Descending Washington Center
Sun 04:29:29 PM 38.1472 -78.4669 North 118 136 700 -492 Descending Washington Center
Sun 04:31:00 PM 38.1333 -78.4500 90° East  Level FlightAware Approximate
Sun 04:38:00 PM 38.1386 -78.4529 90° East  Level Estimated
Sun 04:39:00 PM 38.1333 -78.4500 90° East  Level FlightAware Approximate
Sun 04:40:00 PM 38.1386 -78.4529 90° East  Level Estimated
Sun 04:41:00 PM 38.1333 -78.4500 90° East  Level FlightAware Approximate
Sun 04:42:00 PM 38.1386 -78.4529 90° East  Level Estimated
Sun 04:43:00 PM 38.1333 -78.4500 90° East  Level FlightAware Approximate
Sun 04:44:00 PM 38.1386 -78.4529 90° East  Level Estimated
Sun 04:45:00 PM 38.1333 -78.4500 90° East  Level FlightAware Approximate

Login

Don't have an account? Register now (free) for customized features, flight alerts, and more!